createdAt,value
2019-02-03T00:00:16.053Z,2.25
2019-02-03T00:01:20.240Z,2.25
2019-02-03T00:02:24.333Z,2.25
2019-02-03T00:03:28.543Z,2.26
2019-02-03T00:04:32.693Z,2.27
2019-02-03T00:05:36.932Z,2.30
2019-02-03T00:06:40.981Z,2.34
2019-02-03T00:07:45.224Z,2.36
2019-02-03T00:08:49.332Z,2.38
2019-02-03T00:09:53.460Z,2.40
2019-02-03T00:10:57.715Z,2.43
2019-02-03T00:12:01.838Z,2.43
2019-02-03T00:13:06.061Z,2.44
2019-02-03T00:14:10.091Z,2.44
2019-02-03T00:15:14.357Z,2.44
2019-02-03T00:16:18.480Z,2.42
2019-02-03T00:17:22.671Z,2.39
2019-02-03T00:18:26.727Z,2.37
2019-02-03T00:19:31.022Z,2.37
2019-02-03T00:20:35.121Z,2.38
2019-02-03T00:21:39.323Z,2.40
2019-02-03T00:22:43.385Z,2.43
2019-02-03T00:23:47.598Z,2.46
2019-02-03T00:24:51.674Z,2.47
2019-02-03T00:25:55.975Z,2.49
2019-02-03T00:27:00.070Z,2.50
2019-02-03T00:28:04.248Z,2.51
2019-02-03T00:29:08.329Z,2.52
2019-02-03T00:30:12.578Z,2.55
2019-02-03T00:31:16.798Z,2.56
2019-02-03T00:32:20.951Z,2.58
2019-02-03T00:33:25.135Z,2.58
2019-02-03T00:34:29.196Z,2.59
2019-02-03T00:35:33.337Z,2.60
2019-02-03T00:36:37.488Z,2.59
2019-02-03T00:37:41.712Z,2.58
2019-02-03T00:38:45.825Z,2.59
2019-02-03T00:39:53.082Z,2.59
2019-02-03T00:40:56.220Z,2.59
2019-02-03T00:42:00.296Z,2.59
2019-02-03T00:43:04.534Z,2.59
2019-02-03T00:44:08.749Z,2.60
2019-02-03T00:45:12.918Z,2.61
2019-02-03T00:46:17.163Z,2.62
2019-02-03T00:47:21.203Z,2.63
2019-02-03T00:48:25.366Z,2.64
2019-02-03T00:49:29.633Z,2.65
2019-02-03T00:50:33.726Z,2.67
2019-02-03T00:51:37.898Z,2.68
2019-02-03T00:52:42.144Z,2.69
2019-02-03T00:53:46.259Z,2.68
2019-02-03T00:54:50.332Z,2.67
2019-02-03T00:55:54.551Z,2.67
2019-02-03T00:56:58.627Z,2.67
2019-02-03T00:58:02.764Z,2.67
2019-02-03T00:59:06.987Z,2.68
2019-02-03T01:00:11.072Z,2.68
2019-02-03T01:01:15.204Z,2.68
2019-02-03T01:02:19.465Z,2.68
2019-02-03T01:03:26.415Z,2.68
2019-02-03T01:04:27.743Z,2.68
2019-02-03T01:05:31.859Z,2.68
2019-02-03T01:06:36.084Z,2.66
2019-02-03T01:07:40.167Z,2.65
2019-02-03T01:08:44.307Z,2.62
2019-02-03T01:09:48.549Z,2.62
2019-02-03T01:10:52.756Z,2.60
2019-02-03T01:11:56.894Z,2.59
2019-02-03T01:13:01.053Z,2.57
2019-02-03T01:14:05.234Z,2.54
2019-02-03T01:15:09.322Z,2.51
2019-02-03T01:16:13.597Z,2.50
2019-02-03T01:17:17.780Z,2.50
2019-02-03T01:18:21.858Z,2.49
2019-02-03T01:19:26.081Z,2.49
2019-02-03T01:20:30.179Z,2.48
2019-02-03T01:21:34.441Z,2.47
2019-02-03T01:22:38.545Z,2.48
2019-02-03T01:23:42.671Z,2.48
2019-02-03T01:24:46.890Z,2.49
2019-02-03T01:25:50.961Z,2.51
2019-02-03T01:26:55.070Z,2.54
2019-02-03T01:27:59.321Z,2.53
2019-02-03T01:29:03.483Z,2.54
2019-02-03T01:30:07.538Z,2.54
2019-02-03T01:31:11.731Z,2.55
2019-02-03T01:32:15.915Z,2.56
2019-02-03T01:33:20.024Z,2.57
2019-02-03T01:34:24.212Z,2.56
2019-02-03T01:35:28.282Z,2.56
2019-02-03T01:36:32.465Z,2.56
2019-02-03T01:37:39.461Z,2.55
2019-02-03T01:38:40.872Z,2.56
2019-02-03T01:39:44.965Z,2.56
2019-02-03T01:40:49.228Z,2.57
2019-02-03T01:41:53.289Z,2.58
2019-02-03T01:42:57.449Z,2.60
2019-02-03T01:44:01.692Z,2.61
2019-02-03T01:45:05.762Z,2.61
2019-02-03T01:46:09.902Z,2.60
2019-02-03T01:47:14.157Z,2.58
2019-02-03T01:48:18.298Z,2.57
2019-02-03T01:49:22.398Z,2.56
2019-02-03T01:50:26.646Z,2.55
2019-02-03T01:51:30.740Z,2.54
2019-02-03T01:52:34.997Z,2.54
2019-02-03T01:53:39.214Z,2.55
2019-02-03T01:54:43.370Z,2.56
2019-02-03T01:55:47.529Z,2.57
2019-02-03T01:56:51.651Z,2.58
2019-02-03T01:57:55.759Z,2.58
2019-02-03T01:59:00.879Z,2.58
2019-02-03T02:00:04.691Z,2.58
2019-02-03T02:01:08.874Z,2.58
2019-02-03T02:02:13.034Z,2.58
2019-02-03T02:03:17.085Z,2.59
2019-02-03T02:04:21.200Z,2.60
2019-02-03T02:05:25.353Z,2.60
2019-02-03T02:06:29.590Z,2.61
2019-02-03T02:07:33.689Z,2.61
2019-02-03T02:08:37.974Z,2.61
2019-02-03T02:09:42.006Z,2.62
2019-02-03T02:10:46.128Z,2.64
2019-02-03T02:11:50.240Z,2.64
2019-02-03T02:12:54.454Z,2.64
2019-02-03T02:13:58.551Z,2.63
2019-02-03T02:15:02.762Z,2.62
2019-02-03T02:16:06.840Z,2.61
2019-02-03T02:17:11.069Z,2.61
2019-02-03T02:18:15.325Z,2.61
2019-02-03T02:19:19.346Z,2.61
2019-02-03T02:20:23.578Z,2.61
2019-02-03T02:21:27.742Z,2.61
2019-02-03T02:22:31.791Z,2.60
2019-02-03T02:23:36.054Z,2.61
2019-02-03T02:24:40.125Z,2.61
2019-02-03T02:25:44.241Z,2.61
2019-02-03T02:26:48.410Z,2.61
2019-02-03T02:27:52.630Z,2.61
2019-02-03T02:28:56.809Z,2.60
2019-02-03T02:30:00.941Z,2.61
2019-02-03T02:31:05.126Z,2.62
2019-02-03T02:32:09.249Z,2.62
2019-02-03T02:33:13.500Z,2.62
2019-02-03T02:34:17.601Z,2.62
2019-02-03T02:35:21.703Z,2.62
2019-02-03T02:36:25.823Z,2.62
2019-02-03T02:37:30.015Z,2.63
2019-02-03T02:38:34.092Z,2.64
2019-02-03T02:39:38.230Z,2.64
2019-02-03T02:40:42.438Z,2.65
2019-02-03T02:41:46.541Z,2.66
2019-02-03T02:42:50.708Z,2.67
2019-02-03T02:43:54.817Z,2.67
2019-02-03T02:44:59.030Z,2.67
2019-02-03T02:46:03.105Z,2.68
2019-02-03T02:47:07.238Z,2.69
2019-02-03T02:48:11.404Z,2.70
2019-02-03T02:49:15.568Z,2.71
2019-02-03T02:50:19.740Z,2.71
2019-02-03T02:51:23.833Z,2.71
2019-02-03T02:52:28.061Z,2.71
2019-02-03T02:53:32.274Z,2.70
2019-02-03T02:54:36.448Z,2.70
2019-02-03T02:55:40.585Z,2.69
2019-02-03T02:56:44.770Z,2.70
2019-02-03T02:57:48.855Z,2.71
2019-02-03T02:58:53.027Z,2.72
2019-02-03T02:59:57.368Z,2.72
2019-02-03T03:01:01.280Z,2.73
2019-02-03T03:02:05.493Z,2.73
2019-02-03T03:03:09.656Z,2.73
2019-02-03T03:04:13.728Z,2.73
2019-02-03T03:05:17.905Z,2.73
2019-02-03T03:06:22.043Z,2.73
2019-02-03T03:07:26.128Z,2.73
2019-02-03T03:08:30.228Z,2.73
2019-02-03T03:09:34.473Z,2.72
2019-02-03T03:10:38.684Z,2.72
2019-02-03T03:11:42.885Z,2.72
2019-02-03T03:12:48.018Z,2.70
2019-02-03T03:13:51.623Z,2.69
2019-02-03T03:14:55.805Z,2.70
2019-02-03T03:16:00.016Z,2.69
2019-02-03T03:17:04.086Z,2.70
2019-02-03T03:18:08.197Z,2.71
2019-02-03T03:19:12.449Z,2.72
2019-02-03T03:20:16.548Z,2.72
2019-02-03T03:21:20.782Z,2.72
2019-02-03T03:22:24.930Z,2.72
2019-02-03T03:23:29.024Z,2.72
2019-02-03T03:24:33.173Z,2.71
2019-02-03T03:25:37.449Z,2.71
2019-02-03T03:26:41.598Z,2.71
2019-02-03T03:27:45.722Z,2.71
2019-02-03T03:28:49.894Z,2.71
2019-02-03T03:29:54.047Z,2.71
2019-02-03T03:30:58.109Z,2.73
2019-02-03T03:32:02.216Z,2.75
2019-02-03T03:33:06.431Z,2.75
2019-02-03T03:34:10.633Z,2.74
2019-02-03T03:35:14.706Z,2.74
2019-02-03T03:36:18.893Z,2.74
2019-02-03T03:37:22.999Z,2.74
2019-02-03T03:38:32.273Z,2.74
2019-02-03T03:39:31.351Z,2.75
2019-02-03T03:40:35.564Z,2.75
2019-02-03T03:41:39.762Z,2.76
2019-02-03T03:42:43.936Z,2.76
2019-02-03T03:43:48.124Z,2.77
2019-02-03T03:44:52.173Z,2.78
2019-02-03T03:45:56.319Z,2.78
2019-02-03T03:47:00.483Z,2.78
2019-02-03T03:48:04.566Z,2.79
2019-02-03T03:49:08.793Z,2.79
2019-02-03T03:50:12.985Z,2.79
2019-02-03T03:51:17.035Z,2.80
2019-02-03T03:52:21.194Z,2.81
2019-02-03T03:53:25.325Z,2.81
2019-02-03T03:54:29.441Z,2.81
2019-02-03T03:55:33.708Z,2.81
2019-02-03T03:56:37.783Z,2.80
2019-02-03T03:57:41.860Z,2.80
2019-02-03T03:58:46.116Z,2.80
2019-02-03T03:59:50.281Z,2.80
2019-02-03T04:00:54.399Z,2.80
2019-02-03T04:01:58.528Z,2.81
2019-02-03T04:03:02.765Z,2.82
2019-02-03T04:04:06.869Z,2.82
2019-02-03T04:05:11.099Z,2.82
2019-02-03T04:06:15.159Z,2.82
2019-02-03T04:07:19.444Z,2.83
2019-02-03T04:08:23.617Z,2.83
2019-02-03T04:09:27.677Z,2.82
2019-02-03T04:10:31.805Z,2.83
2019-02-03T04:11:36.007Z,2.83
2019-02-03T04:12:40.099Z,2.83
2019-02-03T04:13:44.232Z,2.83
2019-02-03T04:14:48.345Z,2.83
2019-02-03T04:15:52.580Z,2.83
2019-02-03T04:16:56.613Z,2.83
2019-02-03T04:18:00.789Z,2.84
2019-02-03T04:19:05.157Z,2.84
2019-02-03T04:20:09.123Z,2.84
2019-02-03T04:21:13.208Z,2.84
2019-02-03T04:22:17.446Z,2.84
2019-02-03T04:23:21.637Z,2.84
2019-02-03T04:24:25.772Z,2.85
2019-02-03T04:25:29.979Z,2.85
2019-02-03T04:26:34.077Z,2.86
2019-02-03T04:27:38.198Z,2.86
2019-02-03T04:28:42.459Z,2.86
2019-02-03T04:29:46.638Z,2.86
2019-02-03T04:30:50.809Z,2.86
2019-02-03T04:31:55.008Z,2.87
2019-02-03T04:32:59.189Z,2.87
2019-02-03T04:34:03.362Z,2.88
2019-02-03T04:35:07.540Z,2.87
2019-02-03T04:36:11.720Z,2.87
2019-02-03T04:37:15.885Z,2.87
2019-02-03T04:38:20.141Z,2.87
2019-02-03T04:39:24.157Z,2.87
2019-02-03T04:40:28.381Z,2.87
2019-02-03T04:41:32.448Z,2.87
2019-02-03T04:42:36.584Z,2.88
2019-02-03T04:43:40.834Z,2.89
2019-02-03T04:44:44.887Z,2.90
2019-02-03T04:45:49.132Z,2.92
2019-02-03T04:46:53.280Z,2.93
2019-02-03T04:47:57.344Z,2.94
2019-02-03T04:49:01.463Z,2.94
2019-02-03T04:50:05.595Z,2.95
2019-02-03T04:51:09.800Z,2.96
2019-02-03T04:52:13.881Z,2.97
2019-02-03T04:53:18.052Z,2.96
2019-02-03T04:54:22.322Z,2.97
2019-02-03T04:55:26.508Z,2.97
2019-02-03T04:56:30.689Z,2.96
2019-02-03T04:57:34.865Z,2.96
2019-02-03T04:58:39.100Z,2.95
2019-02-03T04:59:43.278Z,2.95
2019-02-03T05:00:47.339Z,2.95
2019-02-03T05:01:51.632Z,2.94
2019-02-03T05:02:55.730Z,2.94
2019-02-03T05:03:59.906Z,2.94
2019-02-03T05:05:04.181Z,2.94
2019-02-03T05:06:08.254Z,2.94
2019-02-03T05:07:12.399Z,2.94
2019-02-03T05:08:16.660Z,2.94
2019-02-03T05:09:20.753Z,2.93
2019-02-03T05:10:24.933Z,2.95
2019-02-03T05:11:29.064Z,2.97
2019-02-03T05:12:33.175Z,2.96
2019-02-03T05:13:37.289Z,2.95
2019-02-03T05:14:41.545Z,2.94
2019-02-03T05:15:45.651Z,2.93
2019-02-03T05:16:49.783Z,2.92
2019-02-03T05:17:53.904Z,2.90
2019-02-03T05:18:58.044Z,2.90
2019-02-03T05:20:02.211Z,2.91
2019-02-03T05:21:06.326Z,2.92
2019-02-03T05:22:10.578Z,2.93
2019-02-03T05:23:14.730Z,2.92
2019-02-03T05:24:18.961Z,2.92
2019-02-03T05:25:22.986Z,2.93
2019-02-03T05:26:27.236Z,2.93
2019-02-03T05:27:31.444Z,2.92
2019-02-03T05:28:35.493Z,2.90
2019-02-03T05:29:39.745Z,2.90
2019-02-03T05:30:43.929Z,2.89
2019-02-03T05:31:48.153Z,2.88
2019-02-03T05:32:52.228Z,2.89
2019-02-03T05:33:56.457Z,2.89
2019-02-03T05:35:00.557Z,2.89
2019-02-03T05:36:04.778Z,2.89
2019-02-03T05:37:08.866Z,2.89
2019-02-03T05:38:13.091Z,2.89
2019-02-03T05:39:25.055Z,2.89
2019-02-03T05:40:21.417Z,2.89
2019-02-03T05:41:25.492Z,2.88
2019-02-03T05:42:29.652Z,2.88
2019-02-03T05:43:33.875Z,2.87
2019-02-03T05:44:38.072Z,2.86
2019-02-03T05:45:42.099Z,2.86
2019-02-03T05:46:46.352Z,2.86
2019-02-03T05:47:50.732Z,2.86
2019-02-03T05:48:54.715Z,2.86
2019-02-03T05:49:58.817Z,2.85
2019-02-03T05:51:03.032Z,2.84
2019-02-03T05:52:07.130Z,2.85
2019-02-03T05:53:11.391Z,2.85
2019-02-03T05:54:15.595Z,2.85
2019-02-03T05:55:19.851Z,2.87
2019-02-03T05:56:23.936Z,2.88
2019-02-03T05:57:28.080Z,2.88
2019-02-03T05:58:32.258Z,2.88
2019-02-03T05:59:36.374Z,2.89
2019-02-03T06:00:40.602Z,2.89
2019-02-03T06:01:44.772Z,2.89
2019-02-03T06:02:48.937Z,2.91
2019-02-03T06:03:53.102Z,2.92
2019-02-03T06:04:57.304Z,2.92
2019-02-03T06:06:01.373Z,2.92
2019-02-03T06:07:05.547Z,2.92
2019-02-03T06:08:09.643Z,2.91
2019-02-03T06:09:13.843Z,2.90
2019-02-03T06:10:18.080Z,2.91
2019-02-03T06:11:22.118Z,2.91
2019-02-03T06:12:26.360Z,2.91
2019-02-03T06:13:30.542Z,2.89
2019-02-03T06:14:34.788Z,2.88
2019-02-03T06:15:39.729Z,2.88
2019-02-03T06:16:43.476Z,2.88
2019-02-03T06:17:47.573Z,2.88
2019-02-03T06:18:51.839Z,2.88
2019-02-03T06:19:55.892Z,2.90
2019-02-03T06:21:00.064Z,2.90
2019-02-03T06:22:04.291Z,2.90
2019-02-03T06:23:08.363Z,2.89
2019-02-03T06:24:13.490Z,2.89
2019-02-03T06:25:17.199Z,2.89
2019-02-03T06:26:21.345Z,2.89
2019-02-03T06:27:25.517Z,2.89
2019-02-03T06:28:29.648Z,2.90
2019-02-03T06:29:33.791Z,2.91
2019-02-03T06:30:38.027Z,2.94
2019-02-03T06:31:42.210Z,2.96
2019-02-03T06:32:46.402Z,2.98
2019-02-03T06:33:50.454Z,3.00
2019-02-03T06:34:54.733Z,3.01
2019-02-03T06:35:58.830Z,3.02
2019-02-03T06:37:02.991Z,3.02
2019-02-03T06:38:07.153Z,3.01
2019-02-03T06:39:11.320Z,3.02
2019-02-03T06:40:15.500Z,3.01
2019-02-03T06:41:19.614Z,3.00
2019-02-03T06:42:23.745Z,3.00
2019-02-03T06:43:28.022Z,3.00
2019-02-03T06:44:32.063Z,3.01
2019-02-03T06:45:36.280Z,3.00
2019-02-03T06:46:40.486Z,3.00
2019-02-03T06:47:44.553Z,2.99
2019-02-03T06:48:48.660Z,3.00
2019-02-03T06:49:52.808Z,3.00
2019-02-03T06:50:57.061Z,2.99
2019-02-03T06:52:01.149Z,2.98
2019-02-03T06:53:05.354Z,2.98
2019-02-03T06:54:09.431Z,2.98
2019-02-03T06:55:13.563Z,2.96
2019-02-03T06:56:17.794Z,2.94
2019-02-03T06:57:21.870Z,2.93
2019-02-03T06:58:26.077Z,2.91
2019-02-03T06:59:30.155Z,2.89
2019-02-03T07:00:34.272Z,2.89
2019-02-03T07:01:38.536Z,2.89
2019-02-03T07:02:42.614Z,2.90
2019-02-03T07:03:46.867Z,2.92
2019-02-03T07:04:51.169Z,2.93
2019-02-03T07:05:55.220Z,2.93
2019-02-03T07:06:59.450Z,2.93
2019-02-03T07:08:03.603Z,2.92
2019-02-03T07:09:07.690Z,2.93
2019-02-03T07:10:11.829Z,2.94
2019-02-03T07:11:16.066Z,2.93
2019-02-03T07:12:20.262Z,2.92
2019-02-03T07:13:24.484Z,2.92
2019-02-03T07:14:28.612Z,2.93
2019-02-03T07:15:32.822Z,2.94
2019-02-03T07:16:41.735Z,2.93
2019-02-03T07:17:41.132Z,2.93
2019-02-03T07:18:45.197Z,2.92
2019-02-03T07:19:49.440Z,2.92
2019-02-03T07:20:53.527Z,2.93
2019-02-03T07:21:57.801Z,2.94
2019-02-03T07:23:01.897Z,2.95
2019-02-03T07:24:06.031Z,2.95
2019-02-03T07:25:10.164Z,2.94
2019-02-03T07:26:14.382Z,2.95
2019-02-03T07:27:18.451Z,2.95
2019-02-03T07:28:23.626Z,2.96
2019-02-03T07:29:27.464Z,2.98
2019-02-03T07:30:31.585Z,2.98
2019-02-03T07:31:35.815Z,2.98
2019-02-03T07:32:39.914Z,2.97
2019-02-03T07:33:44.049Z,2.96
2019-02-03T07:34:48.152Z,2.95
2019-02-03T07:35:52.353Z,2.94
2019-02-03T07:36:56.549Z,2.93
2019-02-03T07:38:00.598Z,2.93
2019-02-03T07:39:04.716Z,2.93
2019-02-03T07:40:12.556Z,2.93
2019-02-03T07:41:13.140Z,2.92
2019-02-03T07:42:17.178Z,2.93
2019-02-03T07:43:21.480Z,2.94
2019-02-03T07:44:25.553Z,2.94
2019-02-03T07:45:29.649Z,2.94
2019-02-03T07:46:33.756Z,2.95
2019-02-03T07:47:37.990Z,2.96
2019-02-03T07:48:42.215Z,2.95
2019-02-03T07:49:46.461Z,2.96
2019-02-03T07:50:50.568Z,2.98
2019-02-03T07:51:54.763Z,2.99
2019-02-03T07:52:58.859Z,3.00
2019-02-03T07:54:08.491Z,3.01
2019-02-03T07:55:07.126Z,3.00
2019-02-03T07:56:11.289Z,3.00
2019-02-03T07:57:15.462Z,3.01
2019-02-03T07:58:19.629Z,3.01
2019-02-03T07:59:23.834Z,3.00
2019-02-03T08:00:27.926Z,2.99
2019-02-03T08:01:32.076Z,2.97
2019-02-03T08:02:36.294Z,2.96
2019-02-03T08:03:40.501Z,2.96
2019-02-03T08:04:44.718Z,2.97
2019-02-03T08:05:48.740Z,2.99
2019-02-03T08:06:52.875Z,2.99
2019-02-03T08:07:57.050Z,3.00
2019-02-03T08:09:01.204Z,3.01
2019-02-03T08:10:05.434Z,3.02
2019-02-03T08:11:09.646Z,3.01
2019-02-03T08:12:13.725Z,3.01
2019-02-03T08:13:17.892Z,3.01
2019-02-03T08:14:22.136Z,3.02
2019-02-03T08:15:26.227Z,3.03
2019-02-03T08:16:30.490Z,3.04
2019-02-03T08:17:34.583Z,3.05
2019-02-03T08:18:38.768Z,3.06
2019-02-03T08:19:42.967Z,3.06
2019-02-03T08:20:47.151Z,3.04
2019-02-03T08:21:51.288Z,3.03
2019-02-03T08:22:55.459Z,3.02
2019-02-03T08:23:59.595Z,3.03
2019-02-03T08:25:03.709Z,3.02
2019-02-03T08:26:07.879Z,3.01
2019-02-03T08:27:12.091Z,3.00
2019-02-03T08:28:16.264Z,3.00
2019-02-03T08:29:20.490Z,3.01
2019-02-03T08:30:24.655Z,3.01
2019-02-03T08:31:28.774Z,3.03
2019-02-03T08:32:33.023Z,3.02
2019-02-03T08:33:37.208Z,3.01
2019-02-03T08:34:41.322Z,3.00
2019-02-03T08:35:45.447Z,2.99
2019-02-03T08:36:49.576Z,2.98
2019-02-03T08:37:53.807Z,2.98
2019-02-03T08:38:58.013Z,2.97
2019-02-03T08:40:02.130Z,2.97
2019-02-03T08:41:06.310Z,2.97
2019-02-03T08:42:10.445Z,2.98
2019-02-03T08:43:14.643Z,2.98
2019-02-03T08:44:18.731Z,2.98
2019-02-03T08:45:22.965Z,2.98
2019-02-03T08:46:27.143Z,2.98
2019-02-03T08:47:31.230Z,2.98
2019-02-03T08:48:35.384Z,2.98
2019-02-03T08:49:39.511Z,2.98
2019-02-03T08:50:43.697Z,2.98
2019-02-03T08:51:47.811Z,2.98
2019-02-03T08:52:52.039Z,2.98
2019-02-03T08:53:56.197Z,2.99
2019-02-03T08:55:00.262Z,3.01
2019-02-03T08:56:04.428Z,3.02
2019-02-03T08:57:08.655Z,3.03
2019-02-03T08:58:12.739Z,3.04
2019-02-03T08:59:16.883Z,3.04
2019-02-03T09:00:21.104Z,3.05
2019-02-03T09:01:25.345Z,3.07
2019-02-03T09:02:29.515Z,3.08
2019-02-03T09:03:33.591Z,3.09
2019-02-03T09:04:37.814Z,3.12
2019-02-03T09:05:41.944Z,3.12
2019-02-03T09:06:46.174Z,3.11
2019-02-03T09:07:50.371Z,3.11
2019-02-03T09:08:54.395Z,3.11
2019-02-03T09:09:58.612Z,3.10
2019-02-03T09:11:02.854Z,3.09
2019-02-03T09:12:07.061Z,3.09
2019-02-03T09:13:11.097Z,3.08
2019-02-03T09:14:15.316Z,3.07
2019-02-03T09:15:19.790Z,3.07
2019-02-03T09:16:23.616Z,3.08
2019-02-03T09:17:27.716Z,3.09
2019-02-03T09:18:34.932Z,3.10
2019-02-03T09:19:36.016Z,3.10
2019-02-03T09:20:40.101Z,3.12
2019-02-03T09:21:44.244Z,3.11
2019-02-03T09:22:48.432Z,3.11
2019-02-03T09:23:52.547Z,3.11
2019-02-03T09:24:56.670Z,3.11
2019-02-03T09:26:00.880Z,3.11
2019-02-03T09:27:04.973Z,3.10
2019-02-03T09:28:09.083Z,3.09
2019-02-03T09:29:13.330Z,3.08
2019-02-03T09:30:17.538Z,3.08
2019-02-03T09:31:21.600Z,3.07
2019-02-03T09:32:25.703Z,3.06
2019-02-03T09:33:29.952Z,3.06
2019-02-03T09:34:34.016Z,3.06
2019-02-03T09:35:38.160Z,3.06
2019-02-03T09:36:42.327Z,3.08
2019-02-03T09:37:46.564Z,3.07
2019-02-03T09:38:50.818Z,3.08
2019-02-03T09:39:54.819Z,3.07
2019-02-03T09:41:00.372Z,3.07
2019-02-03T09:42:03.271Z,3.07
2019-02-03T09:43:07.331Z,3.07
2019-02-03T09:44:11.487Z,3.07
2019-02-03T09:45:15.611Z,3.07
2019-02-03T09:46:19.850Z,3.09
2019-02-03T09:47:23.952Z,3.09
2019-02-03T09:48:28.066Z,3.09
2019-02-03T09:49:32.200Z,3.10
2019-02-03T09:50:36.348Z,3.11
2019-02-03T09:51:40.489Z,3.12
2019-02-03T09:52:44.640Z,3.12
2019-02-03T09:53:48.752Z,3.11
2019-02-03T09:54:52.884Z,3.11
2019-02-03T09:55:57.001Z,3.12
2019-02-03T09:57:01.245Z,3.12
2019-02-03T09:58:05.301Z,3.13
2019-02-03T09:59:09.443Z,3.13
2019-02-03T10:00:13.715Z,3.13
2019-02-03T10:01:17.912Z,3.13
2019-02-03T10:02:22.111Z,3.13
2019-02-03T10:03:26.189Z,3.13
2019-02-03T10:04:30.330Z,3.13
2019-02-03T10:05:37.139Z,3.14
2019-02-03T10:06:38.607Z,3.14
2019-02-03T10:07:42.721Z,3.15
2019-02-03T10:08:46.916Z,3.16
2019-02-03T10:09:51.007Z,3.17
2019-02-03T10:10:55.157Z,3.18
2019-02-03T10:11:59.373Z,3.20
2019-02-03T10:13:03.561Z,3.21
2019-02-03T10:14:07.729Z,3.22
2019-02-03T10:15:11.843Z,3.23
2019-02-03T10:16:15.956Z,3.24
2019-02-03T10:17:20.109Z,3.25
2019-02-03T10:18:24.405Z,3.27
2019-02-03T10:19:28.569Z,3.28
2019-02-03T10:20:32.630Z,3.29
2019-02-03T10:21:36.846Z,3.31
2019-02-03T10:22:41.042Z,3.33
2019-02-03T10:23:45.274Z,3.34
2019-02-03T10:24:49.445Z,3.34
2019-02-03T10:25:55.460Z,3.34
2019-02-03T10:26:57.787Z,3.33
2019-02-03T10:28:01.974Z,3.32
2019-02-03T10:29:06.170Z,3.31
2019-02-03T10:30:10.280Z,3.33
2019-02-03T10:31:14.409Z,3.33
2019-02-03T10:32:18.710Z,3.33
2019-02-03T10:33:22.831Z,3.33
2019-02-03T10:34:29.555Z,3.33
2019-02-03T10:35:31.283Z,3.34
2019-02-03T10:36:35.470Z,3.33
2019-02-03T10:37:39.648Z,3.33
2019-02-03T10:38:43.736Z,3.34
2019-02-03T10:39:47.836Z,3.33
2019-02-03T10:40:55.060Z,3.33
2019-02-03T10:41:58.289Z,3.33
2019-02-03T10:43:02.410Z,3.32
2019-02-03T10:44:06.545Z,3.32
2019-02-03T10:45:10.932Z,3.31
2019-02-03T10:46:15.123Z,3.30
2019-02-03T10:47:19.173Z,3.29
2019-02-03T10:48:23.367Z,3.28
2019-02-03T10:49:27.605Z,3.27
2019-02-03T10:50:31.674Z,3.26
2019-02-03T10:51:35.978Z,3.25
2019-02-03T10:52:40.163Z,3.23
2019-02-03T10:53:44.235Z,3.22
2019-02-03T10:54:48.529Z,3.21
2019-02-03T10:55:52.689Z,3.21
2019-02-03T10:56:56.889Z,3.20
2019-02-03T10:58:01.060Z,3.20
2019-02-03T10:59:05.158Z,3.21
2019-02-03T11:00:17.889Z,3.23
2019-02-03T11:01:13.582Z,3.24
2019-02-03T11:02:17.766Z,3.24
2019-02-03T11:03:21.940Z,3.23
2019-02-03T11:04:26.181Z,3.23
2019-02-03T11:05:30.385Z,3.23
2019-02-03T11:06:34.440Z,3.24
2019-02-03T11:07:38.661Z,3.23
2019-02-03T11:08:42.862Z,3.23
2019-02-03T11:09:47.143Z,3.21
2019-02-03T11:10:51.195Z,3.20
2019-02-03T11:11:55.343Z,3.20
2019-02-03T11:12:59.625Z,3.22
2019-02-03T11:14:03.695Z,3.21
2019-02-03T11:15:08.020Z,3.22
2019-02-03T11:16:12.176Z,3.21
2019-02-03T11:17:19.219Z,3.19
2019-02-03T11:18:22.464Z,3.18
2019-02-03T11:19:26.626Z,3.17
2019-02-03T11:20:30.707Z,3.16
2019-02-03T11:21:34.797Z,3.17
2019-02-03T11:22:38.946Z,3.17
2019-02-03T11:23:43.117Z,3.17
2019-02-03T11:24:47.232Z,3.18
2019-02-03T11:25:51.486Z,3.18
2019-02-03T11:26:55.669Z,3.18
2019-02-03T11:27:59.730Z,3.17
2019-02-03T11:29:03.894Z,3.18
2019-02-03T11:30:08.024Z,3.17
2019-02-03T11:31:12.171Z,3.16
2019-02-03T11:32:16.303Z,3.16
2019-02-03T11:33:20.450Z,3.18
2019-02-03T11:34:24.561Z,3.21
2019-02-03T11:35:28.818Z,3.23
2019-02-03T11:36:33.019Z,3.25
2019-02-03T11:37:37.086Z,3.26
2019-02-03T11:38:41.216Z,3.28
2019-02-03T11:39:45.350Z,3.30
2019-02-03T11:40:50.408Z,3.30
2019-02-03T11:41:54.236Z,3.29
2019-02-03T11:42:58.327Z,3.28
2019-02-03T11:44:03.330Z,3.28
2019-02-03T11:45:07.109Z,3.29
2019-02-03T11:46:11.317Z,3.29
2019-02-03T11:47:15.485Z,3.28
2019-02-03T11:48:19.684Z,3.26
2019-02-03T11:49:24.668Z,3.24
2019-02-03T11:50:28.410Z,3.24
2019-02-03T11:51:32.653Z,3.24
2019-02-03T11:52:36.805Z,3.24
2019-02-03T11:53:40.889Z,3.24
2019-02-03T11:54:45.142Z,3.22
2019-02-03T11:55:49.251Z,3.21
2019-02-03T11:56:53.488Z,3.21
2019-02-03T11:57:57.559Z,3.23
2019-02-03T11:59:01.795Z,3.25
2019-02-03T12:00:05.852Z,3.27
2019-02-03T12:01:10.020Z,3.29
2019-02-03T12:02:14.184Z,3.28
2019-02-03T12:03:18.285Z,3.27
2019-02-03T12:04:22.447Z,3.25
2019-02-03T12:05:26.548Z,3.24
2019-02-03T12:06:30.803Z,3.25
2019-02-03T12:07:34.989Z,3.25
2019-02-03T12:08:39.165Z,3.25
2019-02-03T12:09:43.256Z,3.26
2019-02-03T12:10:47.450Z,3.27
2019-02-03T12:12:00.799Z,3.29
2019-02-03T12:12:55.802Z,3.29
2019-02-03T12:14:00.032Z,3.30
2019-02-03T12:15:04.120Z,3.31
2019-02-03T12:16:08.413Z,3.30
2019-02-03T12:17:12.530Z,3.31
2019-02-03T12:18:16.605Z,3.31
2019-02-03T12:19:20.744Z,3.34
2019-02-03T12:20:24.972Z,3.35
2019-02-03T12:21:30.214Z,3.35
2019-02-03T12:22:33.186Z,3.33
2019-02-03T12:23:37.412Z,3.32
2019-02-03T12:24:41.620Z,3.30
2019-02-03T12:25:45.730Z,3.30
2019-02-03T12:26:49.905Z,3.30
2019-02-03T12:27:54.093Z,3.29
2019-02-03T12:28:58.259Z,3.28
2019-02-03T12:30:02.452Z,3.28
2019-02-03T12:31:06.540Z,3.27
2019-02-03T12:32:10.675Z,3.25
2019-02-03T12:33:14.860Z,3.25
2019-02-03T12:34:18.921Z,3.24
2019-02-03T12:35:23.146Z,3.22
2019-02-03T12:36:27.220Z,3.21
2019-02-03T12:37:32.259Z,3.20
2019-02-03T12:38:36.002Z,3.20
2019-02-03T12:39:40.127Z,3.20
2019-02-03T12:40:44.375Z,3.20
2019-02-03T12:41:48.541Z,3.20
2019-02-03T12:42:53.525Z,3.20
2019-02-03T12:43:57.340Z,3.20
2019-02-03T12:45:01.373Z,3.20
2019-02-03T12:46:06.377Z,3.20
2019-02-03T12:47:10.139Z,3.18
2019-02-03T12:48:15.151Z,3.18
2019-02-03T12:49:18.994Z,3.17
2019-02-03T12:50:23.049Z,3.17
2019-02-03T12:51:27.274Z,3.18
2019-02-03T12:52:31.339Z,3.18
2019-02-03T12:53:35.498Z,3.18
2019-02-03T12:54:39.716Z,3.19
2019-02-03T12:55:44.944Z,3.20
2019-02-03T12:56:48.008Z,3.20
2019-02-03T12:57:52.072Z,3.19
2019-02-03T12:58:56.319Z,3.18
2019-02-03T13:00:00.445Z,3.17
2019-02-03T13:01:04.631Z,3.18
2019-02-03T13:02:08.801Z,3.18
2019-02-03T13:03:12.931Z,3.17
2019-02-03T13:04:17.160Z,3.18
2019-02-03T13:05:21.330Z,3.17
2019-02-03T13:06:25.368Z,3.17
2019-02-03T13:07:29.497Z,3.17
2019-02-03T13:08:33.632Z,3.17
2019-02-03T13:09:37.773Z,3.18
2019-02-03T13:10:42.013Z,3.18
2019-02-03T13:11:46.113Z,3.19
2019-02-03T13:12:51.145Z,3.19
2019-02-03T13:13:55.795Z,3.18
2019-02-03T13:14:59.519Z,3.18
2019-02-03T13:16:03.715Z,3.17
2019-02-03T13:17:07.879Z,3.15
2019-02-03T13:18:11.977Z,3.15
2019-02-03T13:19:16.130Z,3.16
2019-02-03T13:20:20.279Z,3.15
2019-02-03T13:21:24.359Z,3.17
2019-02-03T13:22:28.451Z,3.18
2019-02-03T13:23:44.222Z,3.18
2019-02-03T13:24:36.670Z,3.20
2019-02-03T13:25:40.892Z,3.21
2019-02-03T13:26:45.039Z,3.23
2019-02-03T13:27:49.123Z,3.25
2019-02-03T13:28:53.298Z,3.25
2019-02-03T13:29:57.507Z,3.26
2019-02-03T13:31:01.670Z,3.26
2019-02-03T13:32:10.837Z,3.27
2019-02-03T13:33:09.959Z,3.28
2019-02-03T13:34:14.985Z,3.26
2019-02-03T13:35:18.815Z,3.25
2019-02-03T13:36:22.985Z,3.23
2019-02-03T13:37:27.166Z,3.22
2019-02-03T13:38:31.325Z,3.21
2019-02-03T13:39:35.390Z,3.21
2019-02-03T13:40:39.530Z,3.21
2019-02-03T13:41:43.733Z,3.21
2019-02-03T13:42:47.857Z,3.22
2019-02-03T13:43:52.057Z,3.23
2019-02-03T13:44:56.223Z,3.22
2019-02-03T13:46:01.210Z,3.22
2019-02-03T13:47:04.947Z,3.22
2019-02-03T13:48:09.149Z,3.22
2019-02-03T13:49:13.223Z,3.22
2019-02-03T13:50:19.324Z,3.21
2019-02-03T13:51:21.488Z,3.20
2019-02-03T13:52:25.647Z,3.21
2019-02-03T13:53:29.772Z,3.21
2019-02-03T13:54:33.959Z,3.20
2019-02-03T13:55:38.042Z,3.19
2019-02-03T13:56:42.248Z,3.20
2019-02-03T13:57:46.403Z,3.21
2019-02-03T13:58:50.645Z,3.21
2019-02-03T13:59:54.704Z,3.22
2019-02-03T14:00:58.798Z,3.22
2019-02-03T14:02:03.153Z,3.21
2019-02-03T14:03:07.269Z,3.22
2019-02-03T14:04:11.433Z,3.21
2019-02-03T14:05:15.627Z,3.22
2019-02-03T14:06:19.771Z,3.22
2019-02-03T14:07:23.879Z,3.22
2019-02-03T14:08:28.000Z,3.22
2019-02-03T14:09:32.238Z,3.22
2019-02-03T14:10:36.459Z,3.22
2019-02-03T14:11:40.614Z,3.23
2019-02-03T14:12:49.707Z,3.24
2019-02-03T14:13:49.317Z,3.23